createdAt,value
2018-09-02T00:00:30.757Z,38.95
2018-09-02T00:01:30.709Z,38.95
2018-09-02T00:02:30.692Z,39.34
2018-09-02T00:03:30.657Z,40.09
2018-09-02T00:04:30.638Z,40.29
2018-09-02T00:05:30.583Z,39.41
2018-09-02T00:06:30.650Z,39.41
2018-09-02T00:07:30.530Z,39.32
2018-09-02T00:08:30.505Z,38.93
2018-09-02T00:09:30.576Z,39.32
2018-09-02T00:10:30.443Z,39.22
2018-09-02T00:11:30.420Z,39.22
2018-09-02T00:12:30.435Z,39.12
2018-09-02T00:13:30.361Z,38.91
2018-09-02T00:14:30.328Z,39.51
2018-09-02T00:15:30.368Z,40.19
2018-09-02T00:16:30.251Z,39.49
2018-09-02T00:17:30.236Z,39.78
2018-09-02T00:18:30.204Z,40.08
2018-09-02T00:19:30.168Z,39.78
2018-09-02T00:20:30.677Z,40.08
2018-09-02T00:21:30.120Z,39.78
2018-09-02T00:22:30.086Z,39.95
2018-09-02T00:23:30.060Z,40.17
2018-09-02T00:24:30.233Z,40.54
2018-09-02T00:25:29.995Z,41.43
2018-09-02T00:26:30.323Z,40.64
2018-09-02T00:27:29.944Z,40.83
2018-09-02T00:28:29.898Z,40.64
2018-09-02T00:29:29.868Z,40.44
2018-09-02T00:30:29.850Z,40.15
2018-09-02T00:31:29.841Z,40.25
2018-09-02T00:32:29.796Z,39.67
2018-09-02T00:33:29.744Z,39.47
2018-09-02T00:34:29.741Z,39.49
2018-09-02T00:35:29.694Z,39.18
2018-09-02T00:36:29.709Z,39.11
2018-09-02T00:37:29.618Z,39.01
2018-09-02T00:38:29.662Z,39.01
2018-09-02T00:39:29.563Z,39.78
2018-09-02T00:40:29.537Z,39.76
2018-09-02T00:41:29.507Z,40.05
2018-09-02T00:42:29.485Z,39.76
2018-09-02T00:43:29.689Z,40.15
2018-09-02T00:44:29.420Z,40.15
2018-09-02T00:45:29.387Z,40.25
2018-09-02T00:46:29.377Z,39.37
2018-09-02T00:47:29.342Z,39.08
2018-09-02T00:48:30.600Z,39.08
2018-09-02T00:49:29.682Z,39.28
2018-09-02T00:50:29.235Z,39.95
2018-09-02T00:51:29.207Z,40.15
2018-09-02T00:52:29.227Z,40.34
2018-09-02T00:53:29.147Z,41.30
2018-09-02T00:54:29.125Z,41.31
2018-09-02T00:55:29.240Z,41.39
2018-09-02T00:56:29.075Z,41.49
2018-09-02T00:57:29.035Z,41.58
2018-09-02T00:58:28.998Z,41.68
2018-09-02T00:59:28.969Z,42.07
2018-09-02T01:00:28.946Z,41.97
2018-09-02T01:01:28.903Z,41.49
2018-09-02T01:02:28.869Z,42.07
2018-09-02T01:03:28.830Z,42.26
2018-09-02T01:04:28.820Z,43.04
2018-09-02T01:05:28.789Z,42.75
2018-09-02T01:06:28.826Z,42.17
2018-09-02T01:07:28.715Z,41.56
2018-09-02T01:08:28.698Z,40.89
2018-09-02T01:09:28.652Z,41.37
2018-09-02T01:10:28.636Z,41.08
2018-09-02T01:11:28.860Z,41.56
2018-09-02T01:12:28.561Z,41.56
2018-09-02T01:13:28.543Z,41.76
2018-09-02T01:14:28.495Z,41.66
2018-09-02T01:15:28.484Z,42.14
2018-09-02T01:16:28.436Z,42.92
2018-09-02T01:17:28.430Z,42.82
2018-09-02T01:18:28.373Z,42.82
2018-09-02T01:19:28.349Z,43.00
2018-09-02T01:20:28.328Z,42.34
2018-09-02T01:21:28.290Z,42.44
2018-09-02T01:22:28.464Z,42.51
2018-09-02T01:23:28.222Z,41.45
2018-09-02T01:24:28.454Z,41.45
2018-09-02T01:25:28.157Z,41.45
2018-09-02T01:26:28.150Z,41.64
2018-09-02T01:27:28.118Z,41.55
2018-09-02T01:28:28.169Z,41.45
2018-09-02T01:29:28.043Z,41.45
2018-09-02T01:30:28.018Z,41.74
2018-09-02T01:31:27.997Z,41.74
2018-09-02T01:32:27.964Z,42.22
2018-09-02T01:33:27.913Z,43.09
2018-09-02T01:34:27.975Z,42.80
2018-09-02T01:35:27.852Z,42.80
2018-09-02T01:36:27.824Z,42.90
2018-09-02T01:37:27.791Z,42.90
2018-09-02T01:38:27.766Z,42.71
2018-09-02T01:39:27.731Z,42.61
2018-09-02T01:40:27.703Z,43.00
2018-09-02T01:41:27.734Z,42.90
2018-09-02T01:42:27.634Z,43.48
2018-09-02T01:43:27.607Z,43.38
2018-09-02T01:44:27.565Z,43.77
2018-09-02T01:45:27.538Z,43.48
2018-09-02T01:46:27.513Z,43.77
2018-09-02T01:47:27.485Z,43.29
2018-09-02T01:48:27.448Z,43.29
2018-09-02T01:49:27.432Z,43.19
2018-09-02T01:50:27.440Z,43.09
2018-09-02T01:51:27.356Z,43.09
2018-09-02T01:52:27.333Z,43.09
2018-09-02T01:53:27.355Z,43.09
2018-09-02T01:54:27.272Z,42.90
2018-09-02T01:55:27.232Z,42.80
2018-09-02T01:56:27.220Z,42.80
2018-09-02T01:57:27.161Z,42.68
2018-09-02T01:58:27.148Z,43.17
2018-09-02T01:59:27.119Z,43.07
2018-09-02T02:00:27.096Z,43.17
2018-09-02T02:01:27.098Z,42.97
2018-09-02T02:02:27.014Z,43.37
2018-09-02T02:03:26.982Z,43.65
2018-09-02T02:04:26.954Z,43.85
2018-09-02T02:05:26.932Z,43.46
2018-09-02T02:06:26.886Z,44.23
2018-09-02T02:07:26.877Z,43.55
2018-09-02T02:08:26.839Z,44.72
2018-09-02T02:09:26.811Z,44.53
2018-09-02T02:10:26.783Z,44.43
2018-09-02T02:11:26.749Z,44.50
2018-09-02T02:12:26.718Z,44.21
2018-09-02T02:13:26.683Z,44.89
2018-09-02T02:14:26.648Z,44.60
2018-09-02T02:15:26.621Z,44.21
2018-09-02T02:16:26.739Z,44.31
2018-09-02T02:17:26.547Z,44.31
2018-09-02T02:18:26.525Z,44.33
2018-09-02T02:19:26.489Z,44.31
2018-09-02T02:20:26.469Z,44.02
2018-09-02T02:21:26.428Z,44.40
2018-09-02T02:22:26.407Z,44.40
2018-09-02T02:23:26.359Z,44.50
2018-09-02T02:24:26.327Z,44.40
2018-09-02T02:25:26.305Z,44.02
2018-09-02T02:26:26.266Z,44.50
2018-09-02T02:27:26.501Z,44.50
2018-09-02T02:28:26.212Z,44.31
2018-09-02T02:29:26.177Z,45.28
2018-09-02T02:30:26.140Z,45.37
2018-09-02T02:31:26.116Z,45.47
2018-09-02T02:32:26.095Z,45.28
2018-09-02T02:33:26.054Z,44.98
2018-09-02T02:34:26.029Z,45.47
2018-09-02T02:35:26.000Z,45.66
2018-09-02T02:36:25.964Z,46.05
2018-09-02T02:37:25.933Z,45.95
2018-09-02T02:38:25.908Z,46.05
2018-09-02T02:39:25.874Z,45.95
2018-09-02T02:40:25.839Z,45.76
2018-09-02T02:41:25.801Z,45.28
2018-09-02T02:42:25.772Z,45.47
2018-09-02T02:43:25.734Z,45.57
2018-09-02T02:44:25.710Z,45.45
2018-09-02T02:45:25.679Z,45.25
2018-09-02T02:46:25.644Z,44.96
2018-09-02T02:47:25.625Z,44.96
2018-09-02T02:48:25.575Z,45.25
2018-09-02T02:49:25.705Z,45.06
2018-09-02T02:50:25.520Z,44.87
2018-09-02T02:51:25.497Z,44.96
2018-09-02T02:52:25.466Z,44.57
2018-09-02T02:53:25.440Z,44.50
2018-09-02T02:54:25.392Z,44.48
2018-09-02T02:55:25.666Z,44.48
2018-09-02T02:56:25.333Z,44.38
2018-09-02T02:57:25.292Z,44.38
2018-09-02T02:58:25.268Z,44.38
2018-09-02T02:59:25.238Z,44.48
2018-09-02T03:00:25.197Z,44.38
2018-09-02T03:01:25.517Z,44.38
2018-09-02T03:02:25.141Z,44.38
2018-09-02T03:03:25.101Z,44.48
2018-09-02T03:04:25.076Z,44.79
2018-09-02T03:05:25.046Z,43.99
2018-09-02T03:06:25.021Z,44.40
2018-09-02T03:07:25.140Z,44.96
2018-09-02T03:08:25.015Z,44.87
2018-09-02T03:09:24.907Z,45.35
2018-09-02T03:10:24.872Z,44.87
2018-09-02T03:11:24.851Z,44.67
2018-09-02T03:13:24.786Z,44.48
2018-09-02T03:14:24.755Z,44.48
2018-09-02T03:15:24.731Z,44.67
2018-09-02T03:16:24.683Z,43.90
2018-09-02T03:17:24.652Z,44.19
2018-09-02T03:18:24.627Z,43.51
2018-09-02T03:19:24.603Z,43.32
2018-09-02T03:20:24.558Z,43.23
2018-09-02T03:21:24.526Z,43.80
2018-09-02T03:22:24.507Z,43.90
2018-09-02T03:23:24.472Z,43.41
2018-09-02T03:24:24.443Z,43.41
2018-09-02T03:25:24.408Z,43.51
2018-09-02T03:26:24.385Z,43.90
2018-09-02T03:27:24.351Z,43.61
2018-09-02T03:28:24.507Z,43.32
2018-09-02T03:29:24.283Z,43.71
2018-09-02T03:30:24.252Z,44.29
2018-09-02T03:31:24.221Z,44.48
2018-09-02T03:32:24.213Z,44.87
2018-09-02T03:33:24.149Z,45.25
2018-09-02T03:34:24.228Z,45.74
2018-09-02T03:35:24.085Z,45.74
2018-09-02T03:36:24.058Z,46.03
2018-09-02T03:37:24.079Z,45.93
2018-09-02T03:38:24.005Z,46.22
2018-09-02T03:39:23.976Z,46.30
2018-09-02T03:40:23.941Z,45.81
2018-09-02T03:41:23.905Z,45.81
2018-09-02T03:42:23.883Z,46.10
2018-09-02T03:43:23.840Z,46.00
2018-09-02T03:44:23.811Z,46.88
2018-09-02T03:45:23.776Z,46.88
2018-09-02T03:46:23.752Z,47.07
2018-09-02T03:47:23.715Z,46.00
2018-09-02T03:48:23.688Z,46.10
2018-09-02T03:49:23.657Z,45.81
2018-09-02T03:50:23.618Z,46.00
2018-09-02T03:51:23.601Z,45.81
2018-09-02T03:52:23.562Z,45.91
2018-09-02T03:53:23.539Z,46.30
2018-09-02T03:54:23.491Z,46.78
2018-09-02T03:55:23.873Z,46.78
2018-09-02T03:56:23.438Z,46.78
2018-09-02T03:57:23.404Z,46.78
2018-09-02T03:58:23.437Z,47.45
2018-09-02T03:59:23.348Z,48.13
2018-09-02T04:00:23.325Z,47.94
2018-09-02T04:01:23.281Z,48.23
2018-09-02T04:02:23.230Z,47.72
2018-09-02T04:03:23.207Z,47.36
2018-09-02T04:04:23.172Z,47.45
2018-09-02T04:05:23.134Z,47.53
2018-09-02T04:06:23.120Z,47.45
2018-09-02T04:07:23.067Z,47.84
2018-09-02T04:08:23.051Z,48.01
2018-09-02T04:09:23.015Z,47.84
2018-09-02T04:10:22.976Z,47.72
2018-09-02T04:11:22.979Z,47.81
2018-09-02T04:12:22.966Z,48.01
2018-09-02T04:13:22.886Z,47.72
2018-09-02T04:14:22.890Z,47.43
2018-09-02T04:15:22.834Z,47.07
2018-09-02T04:16:22.800Z,46.68
2018-09-02T04:18:22.726Z,46.75
2018-09-02T04:19:22.698Z,45.98
2018-09-02T04:20:22.672Z,46.17
2018-09-02T04:21:22.641Z,46.20
2018-09-02T04:22:22.810Z,46.10
2018-09-02T04:23:22.573Z,45.91
2018-09-02T04:24:22.539Z,47.16
2018-09-02T04:25:22.507Z,46.49
2018-09-02T04:26:22.480Z,46.66
2018-09-02T04:27:22.446Z,46.88
2018-09-02T04:28:22.413Z,47.16
2018-09-02T04:29:22.380Z,47.16
2018-09-02T04:30:22.356Z,47.53
2018-09-02T04:31:22.317Z,48.11
2018-09-02T04:32:22.370Z,48.30
2018-09-02T04:33:22.245Z,48.11
2018-09-02T04:34:22.222Z,48.69
2018-09-02T04:35:22.194Z,48.39
2018-09-02T04:36:22.156Z,48.21
2018-09-02T04:37:22.133Z,48.11
2018-09-02T04:38:22.084Z,47.53
2018-09-02T04:39:22.069Z,47.14
2018-09-02T04:40:22.026Z,47.43
2018-09-02T04:41:22.001Z,47.33
2018-09-02T04:42:21.965Z,47.14
2018-09-02T04:43:21.920Z,47.81
2018-09-02T04:44:21.890Z,48.11
2018-09-02T04:45:21.904Z,48.30
2018-09-02T04:46:21.831Z,48.21
2018-09-02T04:47:21.794Z,47.91
2018-09-02T04:48:21.820Z,47.91
2018-09-02T04:49:21.736Z,47.91
2018-09-02T04:50:21.719Z,48.37
2018-09-02T04:51:21.663Z,48.37
2018-09-02T04:52:21.646Z,48.08
2018-09-02T04:53:21.607Z,48.28
2018-09-02T04:54:21.577Z,47.80
2018-09-02T04:55:21.550Z,48.21
2018-09-02T04:56:21.513Z,47.63
2018-09-02T04:57:21.520Z,47.81
2018-09-02T04:58:21.437Z,48.39
2018-09-02T04:59:21.435Z,47.89
2018-09-02T05:00:21.423Z,48.21
2018-09-02T05:01:21.352Z,48.37
2018-09-02T05:02:21.312Z,48.88
2018-09-02T05:03:21.444Z,48.76
2018-09-02T05:04:21.245Z,48.76
2018-09-02T05:05:21.223Z,48.86
2018-09-02T05:06:21.195Z,48.76
2018-09-02T05:07:21.159Z,49.44
2018-09-02T05:08:21.121Z,48.66
2018-09-02T05:09:21.106Z,49.44
2018-09-02T05:10:21.089Z,49.05
2018-09-02T05:11:21.028Z,49.15
2018-09-02T05:12:21.009Z,48.95
2018-09-02T05:13:20.963Z,49.24
2018-09-02T05:14:20.943Z,49.44
2018-09-02T05:15:20.912Z,49.34
2018-09-02T05:16:20.866Z,48.76
2018-09-02T05:17:20.841Z,48.95
2018-09-02T05:18:20.802Z,48.57
2018-09-02T05:19:20.775Z,48.28
2018-09-02T05:20:20.731Z,48.47
2018-09-02T05:21:20.703Z,48.66
2018-09-02T05:22:20.691Z,49.44
2018-09-02T05:23:20.635Z,49.34
2018-09-02T05:24:20.617Z,49.34
2018-09-02T05:25:20.832Z,49.53
2018-09-02T05:26:20.561Z,50.21
2018-09-02T05:27:20.517Z,50.01
2018-09-02T05:28:20.489Z,50.11
2018-09-02T05:29:20.445Z,50.21
2018-09-02T05:30:20.413Z,50.21
2018-09-02T05:31:20.386Z,49.92
2018-09-02T05:32:20.354Z,50.01
2018-09-02T05:33:20.313Z,50.38
2018-09-02T05:34:20.293Z,50.47
2018-09-02T05:35:20.262Z,50.01
2018-09-02T05:36:20.279Z,49.44
2018-09-02T05:37:20.200Z,50.11
2018-09-02T05:38:20.166Z,50.31
2018-09-02T05:39:20.142Z,49.82
2018-09-02T05:40:20.104Z,49.34
2018-09-02T05:41:20.104Z,49.44
2018-09-02T05:42:20.030Z,50.01
2018-09-02T05:43:19.997Z,48.76
2018-09-02T05:44:19.967Z,49.34
2018-09-02T05:45:19.954Z,48.47
2018-09-02T05:46:19.900Z,48.18
2018-09-02T05:47:19.872Z,48.37
2018-09-02T05:48:19.830Z,49.44
2018-09-02T05:49:19.793Z,49.34
2018-09-02T05:50:19.799Z,50.01
2018-09-02T05:51:19.743Z,50.21
2018-09-02T05:52:19.701Z,50.31
2018-09-02T05:53:19.688Z,50.96
2018-09-02T05:54:19.651Z,50.98
2018-09-02T05:55:19.628Z,51.15
2018-09-02T05:56:19.615Z,50.86
2018-09-02T05:57:19.696Z,50.86
2018-09-02T05:58:19.512Z,50.76
2018-09-02T05:59:19.479Z,50.57
2018-09-02T06:00:19.458Z,50.38
2018-09-02T06:01:19.421Z,50.38
2018-09-02T06:02:19.375Z,50.47
2018-09-02T06:03:19.769Z,50.67
2018-09-02T06:04:19.322Z,50.40
2018-09-02T06:05:19.278Z,50.57
2018-09-02T06:06:19.262Z,50.47
2018-09-02T06:07:19.222Z,50.09
2018-09-02T06:08:19.187Z,50.28
2018-09-02T06:09:19.357Z,50.18
2018-09-02T06:10:19.124Z,49.51
2018-09-02T06:11:19.097Z,49.99
2018-09-02T06:12:19.065Z,50.38
2018-09-02T06:13:19.033Z,50.38
2018-09-02T06:14:19.005Z,50.67
2018-09-02T06:15:18.962Z,50.57
2018-09-02T06:16:18.937Z,50.38
2018-09-02T06:17:18.938Z,50.86
2018-09-02T06:18:18.863Z,51.05
2018-09-02T06:19:18.838Z,51.05
2018-09-02T06:20:18.806Z,51.05
2018-09-02T06:21:18.771Z,50.86
2018-09-02T06:22:18.746Z,51.05
2018-09-02T06:23:18.700Z,51.92
2018-09-02T06:24:18.677Z,51.63
2018-09-02T06:25:18.643Z,51.44
2018-09-02T06:26:18.618Z,51.82
2018-09-02T06:27:18.578Z,52.21
2018-09-02T06:28:18.539Z,51.73
2018-09-02T06:29:18.504Z,51.63
2018-09-02T06:30:18.573Z,52.11
2018-09-02T06:31:18.455Z,52.31
2018-09-02T06:32:18.418Z,52.50
2018-09-02T06:33:18.383Z,52.11
2018-09-02T06:34:18.351Z,52.47
2018-09-02T06:35:18.322Z,52.67
2018-09-02T06:36:18.561Z,52.47
2018-09-02T06:37:18.262Z,52.57
2018-09-02T06:38:18.239Z,52.47
2018-09-02T06:39:18.215Z,53.05
2018-09-02T06:40:18.156Z,53.05
2018-09-02T06:41:18.117Z,52.67
2018-09-02T06:42:18.239Z,52.95
2018-09-02T06:43:18.055Z,52.67
2018-09-02T06:44:18.014Z,52.76
2018-09-02T06:45:17.989Z,52.76
2018-09-02T06:46:17.949Z,52.76
2018-09-02T06:47:17.920Z,52.95
2018-09-02T06:48:17.912Z,52.86
2018-09-02T06:49:17.858Z,53.25
2018-09-02T06:50:17.828Z,53.05
2018-09-02T06:51:17.791Z,53.25
2018-09-02T06:52:17.769Z,52.95
2018-09-02T06:53:17.731Z,53.05
2018-09-02T06:54:17.695Z,52.95
2018-09-02T06:55:17.651Z,53.05
2018-09-02T06:56:17.637Z,53.05
2018-09-02T06:57:17.603Z,53.05
2018-09-02T06:58:17.971Z,52.76
2018-09-02T06:59:17.528Z,53.05
2018-09-02T07:00:17.500Z,53.25
2018-09-02T07:01:17.466Z,52.95
2018-09-02T07:02:17.434Z,52.86
2018-09-02T07:03:17.391Z,52.95
2018-09-02T07:04:17.560Z,53.05
2018-09-02T07:05:17.342Z,52.95
2018-09-02T07:06:17.307Z,53.25
2018-09-02T07:07:17.277Z,53.25
2018-09-02T07:08:17.257Z,53.34
2018-09-02T07:09:17.197Z,53.44
2018-09-02T07:10:17.175Z,53.44
2018-09-02T07:11:17.139Z,53.25
2018-09-02T07:12:17.105Z,53.25
2018-09-02T07:13:17.065Z,53.15
2018-09-02T07:14:17.106Z,53.70
2018-09-02T07:15:17.013Z,53.80
2018-09-02T07:16:16.967Z,53.34
2018-09-02T07:17:16.947Z,53.41
2018-09-02T07:18:16.914Z,53.34
2018-09-02T07:19:16.896Z,53.80
2018-09-02T07:21:16.811Z,53.83
2018-09-02T07:22:16.772Z,53.80
2018-09-02T07:23:16.735Z,53.51
2018-09-02T07:24:16.764Z,53.80
2018-09-02T07:25:16.684Z,53.89
2018-09-02T07:26:16.647Z,53.80
2018-09-02T07:27:16.630Z,53.80
2018-09-02T07:28:16.573Z,53.89
2018-09-02T07:29:16.545Z,53.70
2018-09-02T07:30:16.510Z,53.89
2018-09-02T07:31:16.510Z,54.18
2018-09-02T07:32:16.448Z,53.99
2018-09-02T07:33:16.424Z,54.09
2018-09-02T07:34:16.378Z,54.38
2018-09-02T07:35:16.344Z,54.28
2018-09-02T07:36:16.312Z,54.38
2018-09-02T07:37:16.279Z,54.57
2018-09-02T07:38:16.256Z,54.76
2018-09-02T07:39:16.210Z,54.47
2018-09-02T07:40:16.189Z,54.09
2018-09-02T07:41:16.160Z,54.28
2018-09-02T07:42:16.119Z,54.47
2018-09-02T07:43:16.096Z,54.47
2018-09-02T07:44:16.132Z,54.28
2018-09-02T07:45:16.014Z,54.47
2018-09-02T07:46:15.985Z,54.28
2018-09-02T07:47:15.956Z,54.57
2018-09-02T07:48:15.926Z,54.66
2018-09-02T07:49:15.942Z,54.44
2018-09-02T07:50:15.883Z,54.28
2018-09-02T07:51:15.832Z,54.25
2018-09-02T07:52:15.790Z,54.57
2018-09-02T07:53:15.766Z,55.24
2018-09-02T07:54:15.733Z,55.02
2018-09-02T07:55:15.702Z,55.05
2018-09-02T07:56:15.663Z,55.24
2018-09-02T07:57:15.640Z,55.02
2018-09-02T07:58:15.595Z,55.15
2018-09-02T07:59:15.562Z,55.02
2018-09-02T08:00:15.555Z,54.93
2018-09-02T08:01:15.498Z,54.93
2018-09-02T08:02:15.882Z,55.31
2018-09-02T08:03:15.435Z,55.22
2018-09-02T08:04:15.405Z,55.02
2018-09-02T08:05:15.371Z,55.22
2018-09-02T08:06:15.343Z,55.02
2018-09-02T08:07:15.304Z,55.51
2018-09-02T08:08:15.619Z,55.70
2018-09-02T08:09:15.240Z,55.02
2018-09-02T08:10:15.206Z,55.51
2018-09-02T08:11:15.165Z,55.31
2018-09-02T08:12:15.155Z,55.41
2018-09-02T08:13:15.095Z,55.51
2018-09-02T08:14:15.072Z,55.51
2018-09-02T08:15:15.040Z,55.99
2018-09-02T08:16:15.003Z,56.09
2018-09-02T08:17:14.974Z,55.89
2018-09-02T08:18:14.941Z,56.09
2018-09-02T08:19:14.912Z,55.89
2018-09-02T08:20:14.873Z,55.70
2018-09-02T08:21:14.839Z,55.89
2018-09-02T08:22:14.809Z,56.27
2018-09-02T08:23:14.777Z,56.47
2018-09-02T08:24:14.741Z,56.76
2018-09-02T08:26:14.666Z,56.57
2018-09-02T08:27:14.640Z,56.76
2018-09-02T08:28:14.605Z,56.76
2018-09-02T08:29:14.562Z,56.66
2018-09-02T08:30:14.727Z,56.47
2018-09-02T08:31:14.503Z,56.57
2018-09-02T08:32:14.471Z,56.66
2018-09-02T08:33:14.428Z,56.47
2018-09-02T08:34:14.403Z,56.35
2018-09-02T08:35:14.368Z,56.37
2018-09-02T08:36:14.342Z,56.27
2018-09-02T08:37:14.335Z,56.25
2018-09-02T08:38:14.262Z,56.57
2018-09-02T08:39:14.294Z,56.35
2018-09-02T08:40:14.197Z,56.66
2018-09-02T08:41:14.204Z,56.25
2018-09-02T08:42:14.136Z,56.35
2018-09-02T08:43:14.116Z,56.57
2018-09-02T08:44:14.107Z,56.44
2018-09-02T08:45:14.038Z,56.35
2018-09-02T08:46:14.000Z,56.37
2018-09-02T08:47:13.979Z,56.25
2018-09-02T08:48:13.929Z,56.66
2018-09-02T08:49:13.904Z,56.63
2018-09-02T08:50:13.867Z,56.44
2018-09-02T08:51:13.833Z,56.35
2018-09-02T08:52:13.803Z,56.82
2018-09-02T08:53:13.784Z,56.44
2018-09-02T08:54:13.729Z,56.82
2018-09-02T08:55:13.710Z,56.35
2018-09-02T08:56:13.691Z,56.44
2018-09-02T08:57:13.641Z,56.44
2018-09-02T08:58:13.604Z,56.15
2018-09-02T08:59:13.576Z,56.35
2018-09-02T09:00:13.541Z,56.63
2018-09-02T09:01:13.506Z,56.63
2018-09-02T09:02:13.511Z,56.35
2018-09-02T09:03:13.432Z,56.44
2018-09-02T09:04:13.407Z,57.31
2018-09-02T09:05:13.368Z,56.92
2018-09-02T09:06:13.334Z,56.63
2018-09-02T09:07:13.304Z,56.92
2018-09-02T09:08:13.459Z,56.82
2018-09-02T09:09:13.361Z,56.92
2018-09-02T09:10:13.222Z,57.31
2018-09-02T09:11:13.167Z,57.40
2018-09-02T09:12:13.131Z,57.40
2018-09-02T09:13:13.096Z,57.50
2018-09-02T09:14:13.092Z,57.40
2018-09-02T09:15:13.045Z,57.40
2018-09-02T09:16:13.009Z,57.40
2018-09-02T09:17:13.038Z,57.31
2018-09-02T09:18:12.946Z,57.21
2018-09-02T09:19:12.994Z,57.21
2018-09-02T09:20:12.872Z,57.12
2018-09-02T09:21:12.838Z,57.60
2018-09-02T09:22:12.845Z,57.21
2018-09-02T09:23:12.771Z,57.02
2018-09-02T09:24:12.741Z,57.69
2018-09-02T09:25:12.747Z,57.50
2018-09-02T09:26:12.687Z,57.89
2018-09-02T09:27:12.645Z,57.89
2018-09-02T09:28:12.612Z,57.50
2018-09-02T09:29:12.584Z,57.79
2018-09-02T09:30:12.544Z,57.50
2018-09-02T09:31:12.504Z,57.60
2018-09-02T09:32:12.533Z,58.27
2018-09-02T09:33:12.703Z,58.27
2018-09-02T09:34:12.409Z,58.17
2018-09-02T09:35:12.381Z,58.47
2018-09-02T09:36:12.347Z,58.56
2018-09-02T09:37:12.313Z,58.27
2018-09-02T09:38:12.270Z,58.37
2018-09-02T09:39:12.399Z,58.17
2018-09-02T09:40:12.210Z,58.08
2018-09-02T09:41:12.189Z,58.08
2018-09-02T09:42:12.157Z,58.37
2018-09-02T09:43:12.115Z,58.17
2018-09-02T09:44:12.072Z,58.47
2018-09-02T09:45:12.038Z,58.75
2018-09-02T09:46:12.056Z,59.33
2018-09-02T09:47:11.981Z,59.62
2018-09-02T09:48:11.948Z,58.75
2018-09-02T09:49:11.903Z,58.75
2018-09-02T09:50:11.877Z,59.23
2018-09-02T09:51:11.854Z,59.81
2018-09-02T09:52:11.805Z,59.75
2018-09-02T09:53:11.776Z,59.84
2018-09-02T09:54:11.748Z,59.94
2018-09-02T09:55:11.713Z,59.84
2018-09-02T09:56:11.679Z,60.32
2018-09-02T09:57:11.645Z,60.13
2018-09-02T09:58:11.604Z,60.80
2018-09-02T09:59:11.574Z,61.19
2018-09-02T10:00:11.896Z,60.61
2018-09-02T10:01:11.511Z,60.52
2018-09-02T10:02:11.470Z,59.94
2018-09-02T10:03:11.451Z,59.84
2018-09-02T10:04:11.410Z,59.58
2018-09-02T10:05:11.365Z,58.91
2018-09-02T10:06:11.342Z,58.91
2018-09-02T10:07:11.301Z,58.62
2018-09-02T10:08:11.277Z,58.91
2018-09-02T10:09:11.233Z,59.00
2018-09-02T10:10:11.211Z,59.00
2018-09-02T10:11:11.170Z,59.48
2018-09-02T10:12:11.149Z,59.58
2018-09-02T10:13:11.181Z,58.81
2018-09-02T10:14:11.082Z,58.81
2018-09-02T10:15:11.046Z,58.72
2018-09-02T10:16:11.015Z,58.52
2018-09-02T10:17:10.989Z,58.52
2018-09-02T10:18:11.076Z,57.65
2018-09-02T10:19:10.980Z,57.78
2018-09-02T10:20:10.884Z,57.68
2018-09-02T10:21:10.870Z,57.46
2018-09-02T10:22:10.816Z,57.10
2018-09-02T10:23:10.778Z,57.01
2018-09-02T10:24:10.745Z,57.29
2018-09-02T10:25:10.724Z,57.29
2018-09-02T10:26:10.684Z,57.29
2018-09-02T10:27:10.649Z,56.52
2018-09-02T10:28:10.648Z,56.56
2018-09-02T10:29:10.594Z,56.74
2018-09-02T10:30:10.564Z,56.36
2018-09-02T10:31:10.525Z,56.07
2018-09-02T10:32:10.493Z,55.10
2018-09-02T10:33:10.458Z,55.40
2018-09-02T10:34:10.421Z,54.65
2018-09-02T10:35:10.394Z,54.36
2018-09-02T10:36:10.382Z,53.97
2018-09-02T10:37:10.336Z,53.88
2018-09-02T10:38:10.320Z,53.78
2018-09-02T10:39:10.273Z,54.46
2018-09-02T10:40:10.230Z,53.97
2018-09-02T10:41:10.230Z,54.00
2018-09-02T10:42:10.177Z,53.61
2018-09-02T10:43:10.142Z,53.61
2018-09-02T10:44:10.111Z,53.23
2018-09-02T10:45:10.085Z,53.13
2018-09-02T10:46:10.078Z,52.45
2018-09-02T10:47:10.016Z,52.26
2018-09-02T10:48:10.028Z,52.26
2018-09-02T10:49:09.956Z,52.17
2018-09-02T10:50:09.932Z,51.81
2018-09-02T10:51:09.886Z,51.61
2018-09-02T10:53:09.822Z,51.23
2018-09-02T10:54:09.792Z,52.00
2018-09-02T10:55:09.777Z,51.42
2018-09-02T10:56:09.740Z,51.61
2018-09-02T10:57:10.054Z,51.90
2018-09-02T10:58:09.674Z,51.61
2018-09-02T10:59:09.933Z,51.06
2018-09-02T11:00:09.605Z,51.44
2018-09-02T11:01:09.579Z,51.73
2018-09-02T11:02:09.539Z,51.73
2018-09-02T11:03:09.509Z,51.15
2018-09-02T11:04:09.489Z,50.96
2018-09-02T11:05:09.475Z,51.54
2018-09-02T11:06:09.424Z,51.54
2018-09-02T11:07:09.390Z,51.54
2018-09-02T11:08:09.357Z,51.56
2018-09-02T11:09:09.332Z,51.18
2018-09-02T11:10:09.304Z,51.18
2018-09-02T11:11:09.268Z,51.37
2018-09-02T11:12:09.239Z,50.50
2018-09-02T11:13:09.295Z,50.70
2018-09-02T11:14:09.168Z,50.79
2018-09-02T11:15:09.285Z,50.79
2018-09-02T11:16:09.166Z,50.89
2018-09-02T11:17:09.083Z,50.50
2018-09-02T11:18:09.039Z,50.62
2018-09-02T11:19:09.017Z,50.52
2018-09-02T11:20:08.980Z,50.92
2018-09-02T11:21:08.950Z,50.24
2018-09-02T11:22:08.920Z,50.45
2018-09-02T11:23:08.896Z,50.16
2018-09-02T11:24:08.855Z,50.43
2018-09-02T11:25:08.823Z,50.55
2018-09-02T11:26:08.798Z,49.68
2018-09-02T11:27:08.771Z,50.16
2018-09-02T11:28:08.745Z,49.77
2018-09-02T11:29:08.699Z,49.87
2018-09-02T11:30:08.683Z,49.22
2018-09-02T11:31:08.915Z,48.74
2018-09-02T11:32:08.771Z,49.32
2018-09-02T11:33:08.584Z,48.54
2018-09-02T11:34:08.667Z,48.74
2018-09-02T11:35:08.517Z,48.44
2018-09-02T11:36:08.499Z,48.64
2018-09-02T11:37:08.465Z,48.25
2018-09-02T11:38:08.426Z,48.27
2018-09-02T11:39:08.407Z,47.98
2018-09-02T11:40:08.391Z,48.08
2018-09-02T11:41:08.329Z,48.18
2018-09-02T11:42:08.308Z,47.50
2018-09-02T11:43:08.315Z,46.92
2018-09-02T11:44:08.237Z,46.72
2018-09-02T11:45:08.256Z,46.84
2018-09-02T11:46:08.192Z,46.82
2018-09-02T11:47:08.157Z,47.13
2018-09-02T11:48:08.131Z,46.36
2018-09-02T11:49:08.345Z,46.36
2018-09-02T11:50:08.069Z,45.87
2018-09-02T11:51:08.025Z,46.16
2018-09-02T11:52:08.033Z,45.58
2018-09-02T11:53:07.976Z,45.48
2018-09-02T11:54:08.043Z,45.20
2018-09-02T11:55:07.923Z,44.42
2018-09-02T11:56:07.885Z,43.57
2018-09-02T11:57:07.853Z,43.01
2018-09-02T11:58:07.825Z,41.96
2018-09-02T11:59:07.793Z,41.49
2018-09-02T12:00:07.759Z,41.30
2018-09-02T12:01:07.737Z,41.01
2018-09-02T12:02:07.702Z,40.34
2018-09-02T12:03:07.679Z,39.67
2018-09-02T12:04:07.846Z,39.29
2018-09-02T12:05:07.768Z,38.71
2018-09-02T12:06:07.595Z,38.15
2018-09-02T12:07:07.556Z,37.64
2018-09-02T12:08:07.530Z,36.98
2018-09-02T12:09:07.503Z,36.79
2018-09-02T12:10:07.464Z,36.49
2018-09-02T12:11:07.601Z,35.91
2018-09-02T12:12:07.448Z,35.52
2018-09-02T12:13:07.392Z,34.37
2018-09-02T12:14:07.348Z,34.27
2018-09-02T12:15:07.320Z,34.47
2018-09-02T12:16:07.307Z,34.19
2018-09-02T12:17:07.307Z,34.19
2018-09-02T12:18:07.252Z,34.09
2018-09-02T12:19:07.230Z,33.51
2018-09-02T12:20:07.189Z,32.92
2018-09-02T12:21:07.179Z,33.02
2018-09-02T12:22:07.143Z,32.92
2018-09-02T12:23:07.117Z,33.02
2018-09-02T12:24:07.073Z,33.02
2018-09-02T12:25:07.052Z,33.43
2018-09-02T12:26:07.029Z,33.23
2018-09-02T12:27:07.001Z,33.04
2018-09-02T12:28:06.962Z,32.84
2018-09-02T12:29:06.943Z,32.84
2018-09-02T12:30:06.932Z,32.45
2018-09-02T12:31:06.888Z,31.98
2018-09-02T12:32:06.882Z,32.08
2018-09-02T12:33:06.830Z,31.98
2018-09-02T12:34:06.801Z,31.88
2018-09-02T12:35:06.775Z,32.18
2018-09-02T12:36:06.753Z,31.88
2018-09-02T12:37:06.717Z,31.79
2018-09-02T12:38:06.692Z,31.49
2018-09-02T12:39:06.676Z,31.20
2018-09-02T12:40:06.644Z,31.22
2018-09-02T12:41:06.620Z,31.22
2018-09-02T12:42:06.685Z,31.31
2018-09-02T12:43:06.552Z,31.60
2018-09-02T12:44:06.535Z,31.70
2018-09-02T12:45:06.518Z,31.41
2018-09-02T12:46:06.484Z,31.22
2018-09-02T12:47:06.449Z,30.44
2018-09-02T12:48:06.683Z,30.44
2018-09-02T12:49:06.398Z,30.63
2018-09-02T12:50:06.370Z,30.44
2018-09-02T12:51:06.356Z,30.44
2018-09-02T12:52:06.314Z,29.66
2018-09-02T12:53:06.285Z,29.28
2018-09-02T12:54:06.287Z,29.47
2018-09-02T12:55:06.264Z,28.99
2018-09-02T12:56:06.207Z,28.89
2018-09-02T12:57:06.183Z,29.08